createdAt,value
2019-04-22T00:02:00.476Z,0.00
2019-04-22T00:02:55.841Z,0.00
2019-04-22T00:04:57.084Z,0.00
2019-04-22T00:06:09.894Z,0.00
2019-04-22T00:08:03.461Z,0.00
2019-04-22T00:09:04.043Z,0.00
2019-04-22T00:10:55.799Z,0.00
2019-04-22T00:12:00.383Z,0.00
2019-04-22T00:13:52.018Z,0.00
2019-04-22T00:14:42.540Z,0.00
2019-04-22T00:16:50.347Z,0.00
2019-04-22T00:17:48.586Z,0.00
2019-04-22T00:19:36.015Z,0.00
2019-04-22T00:20:38.469Z,0.00
2019-04-22T00:22:27.730Z,0.00
2019-04-22T00:23:23.477Z,0.00
2019-04-22T00:25:31.043Z,0.00
2019-04-22T00:26:23.947Z,0.00
2019-04-22T00:28:17.285Z,0.00
2019-04-22T00:29:40.769Z,0.00
2019-04-22T00:31:09.823Z,0.00
2019-04-22T00:32:05.520Z,0.00
2019-04-22T00:33:57.660Z,0.00
2019-04-22T00:34:59.045Z,0.00
2019-04-22T00:36:52.650Z,0.00
2019-04-22T00:37:59.800Z,0.00
2019-04-22T00:39:46.613Z,0.00
2019-04-22T00:40:44.933Z,0.00
2019-04-22T00:42:41.586Z,0.00
2019-04-22T00:43:42.179Z,0.00
2019-04-22T00:45:33.306Z,0.00
2019-04-22T00:46:36.107Z,0.00
2019-04-22T00:48:27.519Z,0.00
2019-04-22T00:51:22.599Z,0.00
2019-04-22T00:52:18.247Z,0.00
2019-04-22T00:54:08.576Z,0.00
2019-04-22T00:55:12.050Z,0.00
2019-04-22T00:57:02.819Z,0.00
2019-04-22T00:58:06.254Z,0.00
2019-04-22T01:00:01.022Z,0.00
2019-04-22T01:01:05.510Z,0.00
2019-04-22T01:02:54.404Z,0.00
2019-04-22T01:03:58.477Z,0.00
2019-04-22T01:05:40.392Z,0.00
2019-04-22T01:06:41.401Z,0.00
2019-04-22T01:08:40.991Z,0.00
2019-04-22T01:09:40.150Z,0.00
2019-04-22T01:11:29.129Z,0.00
2019-04-22T01:12:31.935Z,0.00
2019-04-22T01:14:21.665Z,0.00
2019-04-22T01:15:23.634Z,0.00
2019-04-22T01:17:12.072Z,0.00
2019-04-22T01:18:13.243Z,0.00
2019-04-22T01:20:24.600Z,0.00
2019-04-22T01:21:17.782Z,0.00
2019-04-22T01:22:58.934Z,0.00
2019-04-22T01:23:58.837Z,0.00
2019-04-22T01:25:55.224Z,0.00
2019-04-22T01:26:52.326Z,0.00
2019-04-22T01:28:35.469Z,0.00
2019-04-22T01:29:37.560Z,0.00
2019-04-22T01:31:20.447Z,0.00
2019-04-22T01:32:26.315Z,0.00
2019-04-22T01:34:24.698Z,0.00
2019-04-22T01:35:27.491Z,0.00
2019-04-22T01:37:20.270Z,0.00
2019-04-22T01:38:21.173Z,0.00
2019-04-22T01:40:25.381Z,0.00
2019-04-22T01:41:26.629Z,0.00
2019-04-22T01:43:16.885Z,0.00
2019-04-22T01:46:08.549Z,0.00
2019-04-22T01:48:59.965Z,0.00
2019-04-22T01:50:03.884Z,0.00
2019-04-22T01:53:00.928Z,0.00
2019-04-22T01:54:48.491Z,0.00
2019-04-22T01:55:46.962Z,0.00
2019-04-22T01:57:35.286Z,0.00
2019-04-22T01:58:33.246Z,0.00
2019-04-22T02:00:35.893Z,0.00
2019-04-22T02:01:39.092Z,0.00
2019-04-22T02:03:26.403Z,0.00
2019-04-22T02:04:32.502Z,0.00
2019-04-22T02:06:23.426Z,0.00
2019-04-22T02:07:16.802Z,0.00
2019-04-22T02:09:17.468Z,0.00
2019-04-22T02:10:11.192Z,0.00
2019-04-22T02:12:05.944Z,0.00
2019-04-22T02:13:06.991Z,0.00
2019-04-22T02:15:00.748Z,0.00
2019-04-22T02:16:03.527Z,0.00
2019-04-22T02:17:58.040Z,0.00
2019-04-22T02:18:52.407Z,0.00
2019-04-22T02:20:43.096Z,0.00
2019-04-22T02:21:42.779Z,0.00
2019-04-22T02:24:42.104Z,0.00
2019-04-22T02:27:35.477Z,0.00
2019-04-22T02:29:26.357Z,0.00
2019-04-22T02:30:22.470Z,0.00
2019-04-22T02:32:28.181Z,0.00
2019-04-22T02:33:44.038Z,0.00
2019-04-22T02:35:29.152Z,0.00
2019-04-22T02:38:19.477Z,0.00
2019-04-22T02:39:17.915Z,0.00
2019-04-22T02:41:22.755Z,0.00
2019-04-22T02:42:03.212Z,0.00
2019-04-22T02:44:53.585Z,0.00
2019-04-22T02:47:08.450Z,0.00
2019-04-22T02:47:47.584Z,0.00
2019-04-22T02:49:39.157Z,0.00
2019-04-22T02:50:37.295Z,0.00
2019-04-22T02:54:00.537Z,0.00
2019-04-22T02:55:23.643Z,0.00
2019-04-22T02:56:31.508Z,0.00
2019-04-22T02:58:27.694Z,0.00
2019-04-22T02:59:14.136Z,0.00
2019-04-22T03:02:12.000Z,0.00
2019-04-22T03:08:06.618Z,0.00
2019-04-22T03:09:47.454Z,0.00
2019-04-22T03:15:45.781Z,0.00
2019-04-22T03:18:38.369Z,0.00
2019-04-22T03:19:50.445Z,0.00
2019-04-22T03:21:23.977Z,0.00
2019-04-22T03:22:26.469Z,0.00
2019-04-22T03:24:23.940Z,0.00
2019-04-22T03:27:08.090Z,0.00
2019-04-22T03:28:08.590Z,0.00
2019-04-22T03:30:36.660Z,0.00
2019-04-22T03:31:03.630Z,0.00
2019-04-22T03:33:11.081Z,0.00
2019-04-22T03:34:39.176Z,0.00
2019-04-22T03:37:09.461Z,0.00
2019-04-22T03:39:12.781Z,0.00
2019-04-22T03:41:54.071Z,0.00
2019-04-22T03:42:32.689Z,0.00
2019-04-22T03:44:52.115Z,0.00
2019-04-22T03:45:42.694Z,0.00
2019-04-22T03:48:16.260Z,0.00
2019-04-22T03:50:22.037Z,0.00
2019-04-22T03:51:33.767Z,0.00
2019-04-22T03:53:09.749Z,0.00
2019-04-22T03:54:19.318Z,0.00
2019-04-22T03:56:15.578Z,0.00
2019-04-22T03:59:05.096Z,0.00
2019-04-22T04:02:01.869Z,0.00
2019-04-22T04:04:37.206Z,0.00
2019-04-22T04:08:33.413Z,0.00
2019-04-22T04:11:38.568Z,5.63
2019-04-22T04:13:20.542Z,5.63
2019-04-22T04:14:47.107Z,5.63
2019-04-22T04:16:10.817Z,5.63
2019-04-22T04:20:15.831Z,11.25
2019-04-22T04:21:57.811Z,11.25
2019-04-22T04:23:17.061Z,16.88
2019-04-22T04:25:14.767Z,16.88
2019-04-22T04:30:31.628Z,28.13
2019-04-22T04:33:36.246Z,33.75
2019-04-22T04:36:32.189Z,39.38
2019-04-22T04:37:40.718Z,39.38
2019-04-22T04:39:15.092Z,45.00
2019-04-22T04:42:32.498Z,50.63
2019-04-22T04:43:10.003Z,56.25
2019-04-22T04:46:06.888Z,61.88
2019-04-22T04:47:54.680Z,67.50
2019-04-22T04:51:00.424Z,73.13
2019-04-22T04:51:47.186Z,78.75
2019-04-22T04:53:41.460Z,78.75
2019-04-22T04:54:50.413Z,84.38
2019-04-22T04:56:38.525Z,90.00
2019-04-22T04:57:43.518Z,90.00
2019-04-22T04:59:41.407Z,95.63
2019-04-22T05:06:22.208Z,112.50
2019-04-22T05:08:05.654Z,118.13
2019-04-22T05:09:15.089Z,123.75
2019-04-22T05:11:10.877Z,123.75
2019-04-22T05:12:12.288Z,129.38
2019-04-22T05:13:59.185Z,135.00
2019-04-22T05:14:57.767Z,135.00
2019-04-22T05:16:49.454Z,140.63
2019-04-22T05:19:32.334Z,146.25
2019-04-22T05:20:53.189Z,151.88
2019-04-22T05:23:30.452Z,157.50
2019-04-22T05:25:36.865Z,163.13
2019-04-22T05:28:10.393Z,174.38
2019-04-22T05:31:08.587Z,185.63
2019-04-22T05:32:01.571Z,185.63
2019-04-22T05:35:00.450Z,191.25
2019-04-22T05:36:52.823Z,196.88
2019-04-22T05:37:56.516Z,202.50
2019-04-22T05:39:45.378Z,208.13
2019-04-22T05:40:40.771Z,208.13
2019-04-22T05:42:34.206Z,213.75
2019-04-22T05:43:47.849Z,219.38
2019-04-22T05:45:49.440Z,225.00
2019-04-22T05:46:28.336Z,230.63
2019-04-22T05:48:24.306Z,236.25
2019-04-22T05:49:23.511Z,236.25
2019-04-22T05:51:21.773Z,241.88
2019-04-22T05:52:17.279Z,247.50
2019-04-22T05:54:14.711Z,258.75
2019-04-22T05:55:14.390Z,258.75
2019-04-22T05:57:04.031Z,270.00
2019-04-22T05:58:02.837Z,275.63
2019-04-22T06:00:01.234Z,286.88
2019-04-22T06:01:21.805Z,292.50
2019-04-22T06:02:53.020Z,309.38
2019-04-22T06:03:58.753Z,309.38
2019-04-22T06:05:41.748Z,337.50
2019-04-22T06:06:45.275Z,348.75
2019-04-22T06:08:40.173Z,393.75
2019-04-22T06:09:32.288Z,416.25
2019-04-22T06:12:20.832Z,478.13
2019-04-22T06:14:20.347Z,545.63
2019-04-22T06:15:19.461Z,703.13
2019-04-22T06:17:18.331Z,1800.00
2019-04-22T06:20:13.725Z,2019.38
2019-04-22T06:21:11.213Z,2086.88
2019-04-22T06:23:04.124Z,2115.00
2019-04-22T06:24:05.204Z,2131.88
2019-04-22T06:28:48.136Z,2221.88
2019-04-22T06:32:05.513Z,2131.88
2019-04-22T06:32:42.105Z,2165.63
2019-04-22T06:34:35.846Z,2345.63
2019-04-22T06:35:54.590Z,2407.50
2019-04-22T06:37:24.843Z,2379.38
2019-04-22T06:38:40.425Z,2373.75
2019-04-22T06:40:23.698Z,2396.25
2019-04-22T06:41:25.341Z,2385.00
2019-04-22T06:46:09.881Z,2452.50
2019-04-22T06:47:10.514Z,2514.38
2019-04-22T06:49:04.791Z,2525.63
2019-04-22T06:49:59.199Z,2424.38
2019-04-22T06:51:53.742Z,2486.25
2019-04-22T06:52:54.617Z,2666.25
2019-04-22T06:54:51.189Z,2626.88
2019-04-22T06:55:46.980Z,2553.75
2019-04-22T06:57:41.718Z,2626.88
2019-04-22T06:58:42.575Z,2660.63
2019-04-22T07:00:35.118Z,2733.75
2019-04-22T07:04:25.638Z,2880.00
2019-04-22T07:06:20.076Z,2880.00
2019-04-22T07:07:18.680Z,2795.63
2019-04-22T07:10:22.190Z,2874.38
2019-04-22T07:12:06.408Z,3009.38
2019-04-22T07:13:01.515Z,2992.50
2019-04-22T07:14:53.407Z,2919.38
2019-04-22T07:16:13.354Z,2964.38
2019-04-22T07:17:49.239Z,2902.50
2019-04-22T07:18:48.413Z,3003.75
2019-04-22T07:20:47.263Z,2986.88
2019-04-22T07:21:45.250Z,3099.38
2019-04-22T07:26:24.757Z,3071.25
2019-04-22T07:27:27.575Z,3144.38
2019-04-22T07:29:18.990Z,3076.88
2019-04-22T07:30:24.975Z,3105.00
2019-04-22T07:32:13.132Z,3200.63
2019-04-22T07:33:32.366Z,3228.75
2019-04-22T07:38:04.686Z,3256.88
2019-04-22T07:38:56.536Z,3352.50
2019-04-22T07:40:56.281Z,3335.63
2019-04-22T07:41:51.360Z,3414.38
2019-04-22T07:43:59.836Z,3442.50
2019-04-22T07:44:53.224Z,3487.50
2019-04-22T07:46:43.073Z,3611.25
2019-04-22T07:48:02.677Z,3538.13
2019-04-22T07:49:39.105Z,3515.63
2019-04-22T07:50:49.351Z,3605.63
2019-04-22T07:52:31.875Z,3881.25
2019-04-22T07:53:22.588Z,3825.00
2019-04-22T07:55:12.026Z,3948.75
2019-04-22T07:56:21.393Z,4050.00
2019-04-22T07:58:16.967Z,3999.38
2019-04-22T07:59:15.535Z,3976.88
2019-04-22T08:01:10.191Z,3746.25
2019-04-22T08:02:02.106Z,3701.25
2019-04-22T08:06:58.829Z,3819.38
2019-04-22T08:07:52.478Z,3813.75
2019-04-22T08:09:55.719Z,3768.75
2019-04-22T08:12:38.595Z,4010.63
2019-04-22T08:13:36.632Z,4033.13
2019-04-22T08:15:32.353Z,4038.75
2019-04-22T08:16:30.625Z,4078.13
2019-04-22T08:18:28.985Z,3847.50
2019-04-22T08:21:19.312Z,4027.50
2019-04-22T08:22:14.326Z,3920.63
2019-04-22T08:24:17.962Z,3982.50
2019-04-22T08:25:06.884Z,4145.63
2019-04-22T08:27:07.729Z,4078.13
2019-04-22T08:28:03.329Z,3960.00
2019-04-22T08:30:14.472Z,4117.50
2019-04-22T08:31:04.786Z,3937.50
2019-04-22T08:34:00.592Z,4173.75
2019-04-22T08:36:00.669Z,3943.13
2019-04-22T08:36:54.019Z,3898.13
2019-04-22T08:38:39.544Z,4044.38
2019-04-22T08:39:35.882Z,3982.50
2019-04-22T08:41:32.701Z,3791.25
2019-04-22T08:43:36.668Z,3864.38
2019-04-22T08:44:27.840Z,3920.63
2019-04-22T08:45:25.039Z,3847.50
2019-04-22T08:47:19.129Z,3796.88
2019-04-22T08:48:18.611Z,3746.25
2019-04-22T08:50:18.501Z,3915.00
2019-04-22T08:51:08.806Z,3931.88
2019-04-22T08:53:05.753Z,4066.88
2019-04-22T08:56:07.705Z,4224.38
2019-04-22T08:56:49.355Z,4140.00
2019-04-22T08:58:50.228Z,4106.25
2019-04-22T08:59:49.002Z,4016.25
2019-04-22T09:01:40.808Z,4044.38
2019-04-22T09:04:31.260Z,3948.75
2019-04-22T09:05:53.574Z,3965.63
2019-04-22T09:07:29.154Z,3976.88
2019-04-22T09:08:34.212Z,3909.38
2019-04-22T09:10:28.323Z,3763.13
2019-04-22T09:11:26.945Z,3735.00
2019-04-22T09:13:05.839Z,3228.75
2019-04-22T09:14:15.629Z,1417.50
2019-04-22T09:16:13.137Z,511.88
2019-04-22T09:17:13.671Z,472.50
2019-04-22T09:18:59.246Z,455.63
2019-04-22T09:20:00.091Z,450.00
2019-04-22T09:21:56.390Z,444.38
2019-04-22T09:22:56.806Z,444.38
2019-04-22T09:24:48.617Z,444.38
2019-04-22T09:26:02.932Z,438.75
2019-04-22T09:28:44.725Z,433.13
2019-04-22T09:30:34.475Z,433.13
2019-04-22T09:31:33.746Z,433.13
2019-04-22T09:33:27.142Z,438.75
2019-04-22T09:34:32.109Z,433.13
2019-04-22T09:36:22.647Z,433.13
2019-04-22T09:37:31.815Z,438.75
2019-04-22T09:39:17.355Z,438.75
2019-04-22T09:42:05.102Z,438.75
2019-04-22T09:43:08.078Z,438.75
2019-04-22T09:44:55.524Z,438.75
2019-04-22T09:46:04.391Z,438.75
2019-04-22T09:47:55.345Z,438.75
2019-04-22T09:48:50.216Z,438.75
2019-04-22T09:50:48.028Z,444.38
2019-04-22T09:51:48.533Z,438.75
2019-04-22T09:53:41.709Z,433.13
2019-04-22T09:54:49.250Z,433.13
2019-04-22T09:56:32.174Z,433.13
2019-04-22T09:59:22.707Z,427.50
2019-04-22T10:00:13.954Z,433.13
2019-04-22T10:02:25.016Z,427.50
2019-04-22T10:03:20.372Z,427.50
2019-04-22T10:06:16.488Z,427.50
2019-04-22T10:08:06.692Z,433.13
2019-04-22T10:11:00.901Z,438.75
2019-04-22T10:11:58.603Z,444.38
2019-04-22T10:13:54.077Z,438.75
2019-04-22T10:14:51.114Z,438.75
2019-04-22T10:16:45.303Z,444.38
2019-04-22T10:17:47.403Z,444.38
2019-04-22T10:19:37.227Z,438.75
2019-04-22T10:20:27.090Z,438.75
2019-04-22T10:22:32.539Z,433.13
2019-04-22T10:23:31.562Z,433.13
2019-04-22T10:25:26.405Z,427.50
2019-04-22T10:26:23.567Z,427.50
2019-04-22T10:28:14.732Z,427.50
2019-04-22T10:31:17.126Z,421.88
2019-04-22T10:32:06.855Z,421.88
2019-04-22T10:33:49.491Z,416.25
2019-04-22T10:34:40.870Z,416.25
2019-04-22T10:36:27.825Z,410.63
2019-04-22T10:37:28.160Z,410.63
2019-04-22T10:39:20.444Z,405.00
2019-04-22T10:40:21.624Z,399.38
2019-04-22T10:42:13.443Z,393.75
2019-04-22T10:43:14.905Z,393.75
2019-04-22T10:45:08.076Z,388.13
2019-04-22T10:46:06.472Z,388.13
2019-04-22T10:48:01.379Z,382.50
2019-04-22T10:48:59.996Z,382.50
2019-04-22T10:50:52.739Z,376.88
2019-04-22T10:51:52.927Z,376.88
2019-04-22T10:53:47.072Z,371.25
2019-04-22T10:54:47.274Z,371.25
2019-04-22T10:56:39.017Z,365.63
2019-04-22T10:57:39.052Z,365.63
2019-04-22T10:59:32.291Z,360.00
2019-04-22T11:00:31.807Z,360.00
2019-04-22T11:02:25.655Z,354.38
2019-04-22T11:03:24.865Z,354.38
2019-04-22T11:05:17.893Z,354.38
2019-04-22T11:06:19.173Z,354.38
2019-04-22T11:08:20.388Z,348.75
2019-04-22T11:09:12.368Z,348.75
2019-04-22T11:11:16.084Z,343.13
2019-04-22T11:12:09.916Z,343.13
2019-04-22T11:13:58.029Z,337.50
2019-04-22T11:14:58.182Z,331.88
2019-04-22T11:16:50.190Z,331.88
2019-04-22T11:17:51.362Z,331.88
2019-04-22T11:19:43.600Z,326.25
2019-04-22T11:20:43.999Z,326.25
2019-04-22T11:22:37.362Z,320.63
2019-04-22T11:23:36.619Z,320.63
2019-04-22T11:25:29.992Z,315.00
2019-04-22T11:26:30.201Z,315.00
2019-04-22T11:28:23.376Z,309.38
2019-04-22T11:29:23.750Z,309.38
2019-04-22T11:31:16.575Z,309.38
2019-04-22T11:32:15.511Z,309.38
2019-04-22T11:34:08.932Z,309.38
2019-04-22T11:35:09.900Z,303.75
2019-04-22T11:37:03.162Z,303.75
2019-04-22T11:38:01.655Z,303.75
2019-04-22T11:40:09.156Z,298.13
2019-04-22T11:40:56.272Z,298.13
2019-04-22T11:42:48.338Z,298.13
2019-04-22T11:43:49.445Z,298.13
2019-04-22T11:45:41.683Z,292.50
2019-04-22T11:46:41.341Z,292.50
2019-04-22T11:48:34.353Z,292.50
2019-04-22T11:49:34.402Z,292.50
2019-04-22T11:51:27.606Z,292.50
2019-04-22T11:52:28.713Z,292.50
2019-04-22T11:54:21.060Z,286.88
2019-04-22T11:55:20.520Z,286.88
2019-04-22T11:57:14.933Z,286.88
2019-04-22T11:58:14.888Z,292.50
2019-04-22T12:00:07.148Z,286.88
2019-04-22T12:01:06.707Z,292.50
2019-04-22T12:03:00.841Z,286.88
2019-04-22T12:03:59.993Z,286.88
2019-04-22T12:05:52.692Z,281.25
2019-04-22T12:06:54.029Z,281.25
2019-04-22T12:08:45.988Z,281.25
2019-04-22T12:09:45.953Z,275.63
2019-04-22T12:11:38.868Z,281.25
2019-04-22T12:12:39.687Z,275.63
2019-04-22T12:14:31.958Z,275.63
2019-04-22T12:15:32.962Z,275.63
2019-04-22T12:17:26.310Z,275.63
2019-04-22T12:18:25.045Z,275.63
2019-04-22T12:20:18.453Z,270.00
2019-04-22T12:21:19.381Z,270.00
2019-04-22T12:23:11.392Z,270.00
2019-04-22T12:24:11.138Z,270.00
2019-04-22T12:26:10.816Z,270.00
2019-04-22T12:27:04.327Z,264.38
2019-04-22T12:28:59.219Z,264.38
2019-04-22T12:29:58.733Z,264.38
2019-04-22T12:31:51.460Z,258.75
2019-04-22T12:32:50.830Z,258.75
2019-04-22T12:34:44.358Z,253.13
2019-04-22T12:35:44.476Z,253.13
2019-04-22T12:37:45.757Z,247.50
2019-04-22T12:38:37.785Z,247.50
2019-04-22T12:40:40.873Z,253.13
2019-04-22T12:41:31.113Z,247.50
2019-04-22T12:43:24.596Z,247.50
2019-04-22T12:44:24.418Z,247.50
2019-04-22T12:46:18.511Z,247.50
2019-04-22T12:47:18.162Z,241.88
2019-04-22T12:49:12.175Z,241.88
2019-04-22T12:50:18.682Z,241.88
2019-04-22T12:52:05.178Z,241.88
2019-04-22T12:53:10.415Z,236.25
2019-04-22T12:54:57.393Z,236.25
2019-04-22T12:55:59.312Z,236.25
2019-04-22T12:57:53.459Z,236.25
2019-04-22T12:58:51.647Z,236.25
2019-04-22T13:00:44.599Z,236.25
2019-04-22T13:01:44.660Z,236.25
2019-04-22T13:03:36.500Z,236.25
2019-04-22T13:04:36.548Z,236.25
2019-04-22T13:06:30.142Z,230.63
2019-04-22T13:07:29.642Z,236.25
2019-04-22T13:09:23.129Z,230.63
2019-04-22T13:10:24.009Z,230.63
2019-04-22T13:12:17.065Z,230.63
2019-04-22T13:13:15.728Z,230.63
2019-04-22T13:15:09.805Z,230.63
2019-04-22T13:16:09.066Z,230.63
2019-04-22T13:18:11.829Z,230.63
2019-04-22T13:19:05.643Z,230.63
2019-04-22T13:20:54.919Z,225.00
2019-04-22T13:21:54.903Z,225.00
2019-04-22T13:23:48.894Z,225.00
2019-04-22T13:24:48.085Z,230.63
2019-04-22T13:26:41.195Z,230.63
2019-04-22T13:27:42.783Z,230.63
2019-04-22T13:29:34.960Z,230.63
2019-04-22T13:30:34.649Z,225.00
2019-04-22T13:32:27.120Z,225.00
2019-04-22T13:33:28.494Z,230.63
2019-04-22T13:35:22.065Z,225.00
2019-04-22T13:36:23.687Z,225.00
2019-04-22T13:38:13.248Z,225.00
2019-04-22T13:39:13.386Z,225.00
2019-04-22T13:41:20.432Z,225.00
2019-04-22T13:42:11.863Z,225.00
2019-04-22T13:43:59.859Z,225.00
2019-04-22T13:45:00.173Z,225.00
2019-04-22T13:47:11.591Z,225.00
2019-04-22T13:50:34.567Z,225.00
2019-04-22T13:51:15.106Z,225.00
2019-04-22T13:53:23.862Z,219.38
2019-04-22T13:54:12.642Z,230.63
2019-04-22T13:55:59.285Z,219.38
2019-04-22T13:56:51.881Z,219.38
2019-04-22T13:58:42.392Z,219.38
2019-04-22T13:59:33.522Z,219.38
2019-04-22T14:01:18.742Z,219.38
2019-04-22T14:02:18.908Z,219.38
2019-04-22T14:04:12.469Z,219.38
2019-04-22T14:05:12.758Z,219.38
2019-04-22T14:07:05.175Z,219.38
2019-04-22T14:08:06.282Z,219.38
2019-04-22T14:09:58.269Z,213.75
2019-04-22T14:11:09.879Z,219.38
2019-04-22T14:12:50.936Z,213.75
2019-04-22T14:13:52.065Z,219.38
2019-04-22T14:15:43.917Z,219.38
2019-04-22T14:16:44.882Z,213.75
2019-04-22T14:18:37.024Z,213.75
2019-04-22T14:19:36.712Z,213.75
2019-04-22T14:21:30.596Z,213.75
2019-04-22T14:22:30.522Z,213.75
2019-04-22T14:24:23.752Z,213.75
2019-04-22T14:25:22.994Z,213.75
2019-04-22T14:27:27.696Z,213.75
2019-04-22T14:28:17.991Z,213.75
2019-04-22T14:30:10.442Z,208.13
2019-04-22T14:31:08.945Z,208.13
2019-04-22T14:33:02.733Z,208.13
2019-04-22T14:34:05.395Z,208.13
2019-04-22T14:35:56.404Z,213.75
2019-04-22T14:36:55.293Z,208.13
2019-04-22T14:38:50.143Z,208.13
2019-04-22T14:39:48.239Z,208.13
2019-04-22T14:41:58.647Z,208.13
2019-04-22T14:43:04.136Z,208.13
2019-04-22T14:47:51.340Z,202.50
2019-04-22T14:48:49.387Z,202.50
2019-04-22T14:50:42.198Z,202.50
2019-04-22T14:51:39.288Z,202.50
2019-04-22T14:54:28.371Z,202.50
2019-04-22T14:56:06.620Z,202.50
2019-04-22T14:57:07.337Z,202.50
2019-04-22T14:59:00.815Z,202.50
2019-04-22T14:59:59.790Z,202.50
2019-04-22T15:01:53.960Z,202.50
2019-04-22T15:02:52.633Z,202.50
2019-04-22T15:04:45.971Z,196.88
2019-04-22T15:05:46.259Z,196.88
2019-04-22T15:07:39.419Z,196.88
2019-04-22T15:08:39.369Z,196.88
2019-04-22T15:10:31.907Z,196.88
2019-04-22T15:11:43.862Z,196.88
2019-04-22T15:13:25.348Z,196.88
2019-04-22T15:14:25.651Z,196.88
2019-04-22T15:16:18.300Z,191.25
2019-04-22T15:17:18.673Z,191.25
2019-04-22T15:19:11.720Z,191.25
2019-04-22T15:20:11.935Z,191.25
2019-04-22T15:22:05.015Z,191.25
2019-04-22T15:23:04.714Z,191.25
2019-04-22T15:24:58.496Z,191.25
2019-04-22T15:25:57.131Z,191.25
2019-04-22T15:27:51.167Z,191.25
2019-04-22T15:28:51.406Z,191.25
2019-04-22T15:30:43.432Z,191.25
2019-04-22T15:31:43.246Z,196.88
2019-04-22T15:33:37.443Z,191.25
2019-04-22T15:34:36.684Z,191.25
2019-04-22T15:36:30.462Z,191.25
2019-04-22T15:37:30.847Z,191.25
2019-04-22T15:39:23.120Z,191.25
2019-04-22T15:40:22.763Z,191.25
2019-04-22T15:42:22.731Z,191.25
2019-04-22T15:43:16.980Z,191.25
2019-04-22T15:45:09.021Z,191.25
2019-04-22T15:46:09.844Z,191.25
2019-04-22T15:48:02.112Z,185.63
2019-04-22T15:49:02.147Z,191.25
2019-04-22T15:50:54.975Z,185.63
2019-04-22T15:51:57.582Z,185.63
2019-04-22T15:53:47.696Z,185.63
2019-04-22T15:54:51.750Z,185.63
2019-04-22T15:56:41.120Z,185.63
2019-04-22T15:57:41.981Z,185.63
2019-04-22T15:59:52.237Z,185.63
2019-04-22T16:00:44.575Z,185.63
2019-04-22T16:02:27.809Z,180.00
2019-04-22T16:03:26.982Z,185.63
2019-04-22T16:05:20.370Z,185.63
2019-04-22T16:06:20.011Z,180.00
2019-04-22T16:08:13.036Z,180.00
2019-04-22T16:09:13.252Z,180.00
2019-04-22T16:11:06.227Z,180.00
2019-04-22T16:12:16.285Z,174.38
2019-04-22T16:14:00.255Z,174.38
2019-04-22T16:14:59.772Z,174.38
2019-04-22T16:16:52.537Z,174.38
2019-04-22T16:17:53.107Z,168.75
2019-04-22T16:19:46.715Z,174.38
2019-04-22T16:20:46.159Z,168.75
2019-04-22T16:22:39.115Z,163.13
2019-04-22T16:23:38.329Z,163.13
2019-04-22T16:25:31.389Z,163.13
2019-04-22T16:26:32.588Z,163.13
2019-04-22T16:28:25.135Z,163.13
2019-04-22T16:29:25.163Z,163.13
2019-04-22T16:31:17.671Z,168.75
2019-04-22T16:32:19.008Z,168.75
2019-04-22T16:34:11.341Z,163.13
2019-04-22T16:35:10.606Z,163.13
2019-04-22T16:37:04.916Z,163.13
2019-04-22T16:38:04.388Z,163.13
2019-04-22T16:39:56.709Z,163.13
2019-04-22T16:40:56.850Z,157.50
2019-04-22T16:42:55.332Z,157.50
2019-04-22T16:43:50.775Z,151.88
2019-04-22T16:45:43.511Z,151.88
2019-04-22T16:46:43.612Z,146.25
2019-04-22T16:48:35.896Z,146.25
2019-04-22T16:49:37.240Z,146.25
2019-04-22T16:51:29.784Z,146.25
2019-04-22T16:52:30.166Z,146.25
2019-04-22T16:54:22.220Z,146.25
2019-04-22T16:55:23.042Z,146.25
2019-04-22T16:57:15.791Z,146.25
2019-04-22T16:58:15.037Z,146.25
2019-04-22T17:00:08.914Z,146.25
2019-04-22T17:01:08.095Z,146.25
2019-04-22T17:03:02.764Z,140.63
2019-04-22T17:04:01.422Z,140.63
2019-04-22T17:05:54.153Z,140.63
2019-04-22T17:06:55.383Z,140.63
2019-04-22T17:08:48.609Z,140.63
2019-04-22T17:09:47.978Z,135.00
2019-04-22T17:11:40.336Z,135.00
2019-04-22T17:12:48.908Z,135.00
2019-04-22T17:14:41.073Z,129.38
2019-04-22T17:15:33.457Z,129.38
2019-04-22T17:17:26.645Z,129.38
2019-04-22T17:18:27.353Z,129.38
2019-04-22T17:20:20.846Z,123.75
2019-04-22T17:21:19.671Z,123.75
2019-04-22T17:23:13.955Z,123.75
2019-04-22T17:24:13.889Z,118.13
2019-04-22T17:26:08.403Z,118.13
2019-04-22T17:27:06.403Z,112.50
2019-04-22T17:29:02.565Z,112.50
2019-04-22T17:29:58.968Z,112.50
2019-04-22T17:31:58.369Z,112.50
2019-04-22T17:32:52.462Z,112.50
2019-04-22T17:34:45.441Z,112.50
2019-04-22T17:35:47.177Z,112.50
2019-04-22T17:37:39.653Z,112.50
2019-04-22T17:38:48.498Z,106.88
2019-04-22T17:40:49.127Z,106.88
2019-04-22T17:41:50.461Z,101.25
2019-04-22T17:43:53.773Z,101.25
2019-04-22T17:44:54.225Z,101.25
2019-04-22T17:46:32.432Z,95.63
2019-04-22T17:47:30.294Z,95.63
2019-04-22T17:49:37.171Z,90.00
2019-04-22T17:50:36.220Z,90.00
2019-04-22T17:52:25.108Z,84.38
2019-04-22T17:53:27.936Z,84.38
2019-04-22T17:55:21.640Z,78.75
2019-04-22T17:56:20.613Z,78.75
2019-04-22T17:58:16.899Z,73.13
2019-04-22T17:59:19.100Z,73.13
2019-04-22T18:01:07.161Z,67.50
2019-04-22T18:01:56.658Z,67.50
2019-04-22T18:03:42.388Z,61.88
2019-04-22T18:04:42.889Z,61.88
2019-04-22T18:07:00.421Z,56.25
2019-04-22T18:07:52.301Z,56.25
2019-04-22T18:10:14.678Z,50.63
2019-04-22T18:10:43.465Z,50.63
2019-04-22T18:13:40.971Z,45.00
2019-04-22T18:15:29.375Z,39.38
2019-04-22T18:16:34.460Z,39.38
2019-04-22T18:18:27.936Z,33.75
2019-04-22T18:19:21.035Z,33.75
2019-04-22T18:21:09.192Z,33.75
2019-04-22T18:22:10.837Z,28.13
2019-04-22T18:23:55.404Z,28.13
2019-04-22T18:25:00.945Z,22.50
2019-04-22T18:27:18.975Z,22.50
2019-04-22T18:28:07.395Z,22.50
2019-04-22T18:29:52.018Z,16.88
2019-04-22T18:30:48.509Z,16.88
2019-04-22T18:32:45.357Z,16.88
2019-04-22T18:33:43.293Z,11.25
2019-04-22T18:35:33.945Z,11.25
2019-04-22T18:36:37.522Z,11.25
2019-04-22T18:38:42.412Z,5.63
2019-04-22T18:39:36.357Z,5.63
2019-04-22T18:41:23.454Z,5.63
2019-04-22T18:42:23.132Z,5.63
2019-04-22T18:44:23.526Z,5.63
2019-04-22T18:45:37.325Z,0.00
2019-04-22T18:47:10.622Z,0.00
2019-04-22T18:48:05.572Z,0.00
2019-04-22T18:49:59.471Z,0.00
2019-04-22T18:51:13.345Z,0.00
2019-04-22T18:53:03.703Z,0.00
2019-04-22T18:54:01.585Z,0.00
2019-04-22T18:55:49.074Z,0.00
2019-04-22T18:56:46.508Z,0.00
2019-04-22T18:59:31.217Z,0.00
2019-04-22T19:01:17.822Z,0.00
2019-04-22T19:02:22.929Z,0.00
2019-04-22T19:04:17.488Z,0.00
2019-04-22T19:05:22.093Z,0.00
2019-04-22T19:07:32.456Z,0.00
2019-04-22T19:08:38.313Z,0.00
2019-04-22T19:10:32.930Z,0.00
2019-04-22T19:11:17.018Z,0.00
2019-04-22T19:13:45.199Z,0.00
2019-04-22T19:14:12.771Z,0.00
2019-04-22T19:16:21.071Z,0.00
2019-04-22T19:17:12.205Z,0.00
2019-04-22T19:19:17.239Z,0.00
2019-04-22T19:20:05.477Z,0.00
2019-04-22T19:21:49.487Z,0.00
2019-04-22T19:22:55.425Z,0.00
2019-04-22T19:24:39.798Z,0.00
2019-04-22T19:25:40.446Z,0.00
2019-04-22T19:27:39.285Z,0.00
2019-04-22T19:28:40.430Z,0.00
2019-04-22T19:30:33.472Z,0.00
2019-04-22T19:31:28.543Z,0.00
2019-04-22T19:33:27.346Z,0.00
2019-04-22T19:34:20.435Z,0.00
2019-04-22T19:36:14.733Z,0.00
2019-04-22T19:37:13.273Z,0.00
2019-04-22T19:39:04.307Z,0.00
2019-04-22T19:42:09.777Z,0.00
2019-04-22T19:43:02.286Z,0.00
2019-04-22T19:44:56.794Z,0.00
2019-04-22T19:45:55.835Z,0.00
2019-04-22T19:48:15.778Z,0.00
2019-04-22T19:48:50.032Z,0.00
2019-04-22T19:50:45.551Z,0.00
2019-04-22T19:53:35.317Z,0.00
2019-04-22T19:54:30.723Z,0.00
2019-04-22T19:56:21.206Z,0.00
2019-04-22T19:57:21.536Z,0.00
2019-04-22T19:59:12.259Z,0.00
2019-04-22T20:00:14.483Z,0.00
2019-04-22T20:02:07.273Z,0.00
2019-04-22T20:03:23.174Z,0.00
2019-04-22T20:05:12.538Z,0.00
2019-04-22T20:06:06.018Z,0.00
2019-04-22T20:08:03.142Z,0.00
2019-04-22T20:08:59.767Z,0.00
2019-04-22T20:10:53.424Z,0.00
2019-04-22T20:11:54.221Z,0.00
2019-04-22T20:13:47.691Z,0.00
2019-04-22T20:14:45.007Z,0.00